DTTA/TUN METAR and TAF weather

Enter ICAO airport designator
Station Type Date Time Source
DTTA METAR 2020/03/29 21:00 UTC NOAA

DTTA 292100Z 23002KT 8000 SCT030 SCT040 11/10 Q1014


Station Type Date Time Source
DTTA Decoded METAR 2020/03/29 21:00 UTC NOAA

Tunis-Carthage, Tunisia (DTTA) 36-50N 010-14E 4M
Mar 29, 2020 - 05:00 PM EDT / 2020.03.29 2100 UTC
Wind: from the SW (230 degrees) at 2 MPH (2 KT):0
Visibility: 4 mile(s):0
Sky conditions: partly cloudy
Temperature: 51 F (11 C)
Dew Point: 50 F (10 C)
Relative Humidity: 93%
Pressure (altimeter): 29.94 in. Hg (1014 hPa)
ob: DTTA 292100Z 23002KT 8000 SCT030 SCT040 11/10 Q1014
cycle: 21

Station Type Date Time Source
DTTA TAF 2020/03/29 18:51 UTC NOAA

TAF DTTA 291700Z 2918/3018 19004KT 9999 SCT030 PROB40
TEMPO 2918/2924 VRB15G27KT 4000 -TS RA FEW026CB
BECMG 3004/3006 26010KT
BECMG 3010/3012 32012KT PROB30
TEMPO 3010/3018 RA SCT026TCU FEW030CB

Example: see airport list